sensor_id;sensor_type;location;lat;lon;timestamp;P1;durP1;ratioP1;P2;durP2;ratioP2
8704;SDS011;4389;41.932;25.904;2024-01-25T00:00:21;18.30;;;14.53;;
8704;SDS011;4389;41.932;25.904;2024-01-25T00:02:48;24.07;;;15.87;;
8704;SDS011;4389;41.932;25.904;2024-01-25T00:05:15;29.70;;;20.77;;
8704;SDS011;4389;41.932;25.904;2024-01-25T00:07:47;49.60;;;28.10;;
8704;SDS011;4389;41.932;25.904;2024-01-25T00:10:14;26.07;;;17.90;;
8704;SDS011;4389;41.932;25.904;2024-01-25T00:12:42;22.33;;;15.87;;
8704;SDS011;4389;41.932;25.904;2024-01-25T00:15:09;20.63;;;15.20;;
8704;SDS011;4389;41.932;25.904;2024-01-25T00:17:36;21.20;;;15.17;;
8704;SDS011;4389;41.932;25.904;2024-01-25T00:20:03;26.77;;;17.70;;
8704;SDS011;4389;41.932;25.904;2024-01-25T00:22:31;25.17;;;12.20;;
8704;SDS011;4389;41.932;25.904;2024-01-25T00:25:00;17.33;;;12.53;;
8704;SDS011;4389;41.932;25.904;2024-01-25T00:27:27;14.93;;;11.57;;
8704;SDS011;4389;41.932;25.904;2024-01-25T00:29:54;18.70;;;12.47;;
8704;SDS011;4389;41.932;25.904;2024-01-25T00:32:21;18.57;;;11.30;;
8704;SDS011;4389;41.932;25.904;2024-01-25T00:34:48;14.33;;;11.23;;
8704;SDS011;4389;41.932;25.904;2024-01-25T00:37:15;16.07;;;12.53;;
8704;SDS011;4389;41.932;25.904;2024-01-25T00:39:43;19.63;;;12.47;;
8704;SDS011;4389;41.932;25.904;2024-01-25T00:42:12;18.27;;;13.90;;
8704;SDS011;4389;41.932;25.904;2024-01-25T00:44:40;25.63;;;15.50;;
8704;SDS011;4389;41.932;25.904;2024-01-25T00:47:07;23.20;;;15.53;;
8704;SDS011;4389;41.932;25.904;2024-01-25T00:49:35;21.27;;;15.50;;
8704;SDS011;4389;41.932;25.904;2024-01-25T00:52:02;23.20;;;15.73;;
8704;SDS011;4389;41.932;25.904;2024-01-25T00:54:30;20.23;;;13.93;;
8704;SDS011;4389;41.932;25.904;2024-01-25T00:56:57;19.03;;;12.83;;
8704;SDS011;4389;41.932;25.904;2024-01-25T00:59:26;21.50;;;12.90;;
8704;SDS011;4389;41.932;25.904;2024-01-25T01:01:53;16.37;;;12.53;;
8704;SDS011;4389;41.932;25.904;2024-01-25T01:04:24;17.33;;;12.33;;
8704;SDS011;4389;41.932;25.904;2024-01-25T01:06:51;13.47;;;10.80;;
8704;SDS011;4389;41.932;25.904;2024-01-25T01:09:19;19.60;;;12.73;;
8704;SDS011;4389;41.932;25.904;2024-01-25T01:11:46;17.50;;;12.50;;
8704;SDS011;4389;41.932;25.904;2024-01-25T01:14:15;16.33;;;11.53;;
8704;SDS011;4389;41.932;25.904;2024-01-25T01:16:43;16.30;;;11.93;;
8704;SDS011;4389;41.932;25.904;2024-01-25T01:19:10;15.20;;;11.30;;
8704;SDS011;4389;41.932;25.904;2024-01-25T01:21:37;15.80;;;11.20;;
8704;SDS011;4389;41.932;25.904;2024-01-25T01:24:04;16.53;;;11.13;;
8704;SDS011;4389;41.932;25.904;2024-01-25T01:26:31;15.30;;;12.07;;
8704;SDS011;4389;41.932;25.904;2024-01-25T01:28:57;16.20;;;12.67;;
8704;SDS011;4389;41.932;25.904;2024-01-25T01:31:24;20.27;;;13.47;;
8704;SDS011;4389;41.932;25.904;2024-01-25T01:33:52;20.47;;;13.63;;
8704;SDS011;4389;41.932;25.904;2024-01-25T01:36:19;19.03;;;12.67;;
8704;SDS011;4389;41.932;25.904;2024-01-25T01:38:46;14.30;;;11.50;;
8704;SDS011;4389;41.932;25.904;2024-01-25T01:41:14;18.70;;;13.30;;
8704;SDS011;4389;41.932;25.904;2024-01-25T01:43:41;17.23;;;12.13;;
8704;SDS011;4389;41.932;25.904;2024-01-25T01:46:09;19.70;;;11.83;;
8704;SDS011;4389;41.932;25.904;2024-01-25T01:48:37;16.73;;;12.83;;
8704;SDS011;4389;41.932;25.904;2024-01-25T01:51:08;18.63;;;12.80;;
8704;SDS011;4389;41.932;25.904;2024-01-25T01:53:35;17.90;;;12.57;;
8704;SDS011;4389;41.932;25.904;2024-01-25T01:56:03;17.37;;;12.80;;
8704;SDS011;4389;41.932;25.904;2024-01-25T01:58:30;19.90;;;14.33;;
8704;SDS011;4389;41.932;25.904;2024-01-25T02:00:58;19.77;;;13.70;;
8704;SDS011;4389;41.932;25.904;2024-01-25T02:03:25;18.50;;;13.77;;
8704;SDS011;4389;41.932;25.904;2024-01-25T02:05:52;20.23;;;14.07;;
8704;SDS011;4389;41.932;25.904;2024-01-25T02:08:21;22.30;;;14.87;;
8704;SDS011;4389;41.932;25.904;2024-01-25T02:10:48;21.93;;;16.03;;
8704;SDS011;4389;41.932;25.904;2024-01-25T02:13:15;23.83;;;16.67;;
8704;SDS011;4389;41.932;25.904;2024-01-25T02:15:41;22.67;;;16.00;;
8704;SDS011;4389;41.932;25.904;2024-01-25T02:18:08;19.70;;;15.07;;
8704;SDS011;4389;41.932;25.904;2024-01-25T02:20:36;25.50;;;16.57;;
8704;SDS011;4389;41.932;25.904;2024-01-25T02:23:04;18.80;;;15.13;;
8704;SDS011;4389;41.932;25.904;2024-01-25T02:25:31;21.67;;;15.23;;
8704;SDS011;4389;41.932;25.904;2024-01-25T02:27:58;23.47;;;15.67;;
8704;SDS011;4389;41.932;25.904;2024-01-25T02:30:24;22.37;;;15.77;;
8704;SDS011;4389;41.932;25.904;2024-01-25T02:32:51;19.80;;;13.80;;
8704;SDS011;4389;41.932;25.904;2024-01-25T02:35:18;21.30;;;14.77;;
8704;SDS011;4389;41.932;25.904;2024-01-25T02:37:45;19.03;;;13.57;;
8704;SDS011;4389;41.932;25.904;2024-01-25T02:40:14;22.33;;;15.53;;
8704;SDS011;4389;41.932;25.904;2024-01-25T02:42:41;21.50;;;15.17;;
8704;SDS011;4389;41.932;25.904;2024-01-25T02:45:08;19.50;;;14.50;;
8704;SDS011;4389;41.932;25.904;2024-01-25T02:47:35;20.10;;;14.43;;
8704;SDS011;4389;41.932;25.904;2024-01-25T02:50:02;22.03;;;16.27;;
8704;SDS011;4389;41.932;25.904;2024-01-25T02:52:29;20.90;;;15.80;;
8704;SDS011;4389;41.932;25.904;2024-01-25T02:54:56;19.70;;;14.67;;
8704;SDS011;4389;41.932;25.904;2024-01-25T02:57:24;18.13;;;14.57;;
8704;SDS011;4389;41.932;25.904;2024-01-25T02:59:51;20.67;;;15.90;;
8704;SDS011;4389;41.932;25.904;2024-01-25T03:02:18;22.47;;;16.20;;
8704;SDS011;4389;41.932;25.904;2024-01-25T03:04:45;21.47;;;17.30;;
8704;SDS011;4389;41.932;25.904;2024-01-25T03:07:12;25.03;;;17.67;;
8704;SDS011;4389;41.932;25.904;2024-01-25T03:09:39;28.03;;;18.80;;
8704;SDS011;4389;41.932;25.904;2024-01-25T03:12:06;28.13;;;19.97;;
8704;SDS011;4389;41.932;25.904;2024-01-25T03:14:34;25.63;;;19.97;;
8704;SDS011;4389;41.932;25.904;2024-01-25T03:17:01;25.27;;;19.17;;
8704;SDS011;4389;41.932;25.904;2024-01-25T03:19:28;33.87;;;23.17;;
8704;SDS011;4389;41.932;25.904;2024-01-25T03:21:54;24.23;;;19.07;;
8704;SDS011;4389;41.932;25.904;2024-01-25T03:24:21;28.27;;;17.00;;
8704;SDS011;4389;41.932;25.904;2024-01-25T03:26:49;26.60;;;18.40;;
8704;SDS011;4389;41.932;25.904;2024-01-25T03:29:16;27.23;;;18.83;;
8704;SDS011;4389;41.932;25.904;2024-01-25T03:31:44;27.07;;;19.00;;
8704;SDS011;4389;41.932;25.904;2024-01-25T03:34:11;23.83;;;16.87;;
8704;SDS011;4389;41.932;25.904;2024-01-25T03:36:38;29.67;;;19.23;;
8704;SDS011;4389;41.932;25.904;2024-01-25T03:39:05;24.97;;;17.87;;
8704;SDS011;4389;41.932;25.904;2024-01-25T03:41:33;23.40;;;16.67;;
8704;SDS011;4389;41.932;25.904;2024-01-25T03:44:00;26.33;;;17.73;;
8704;SDS011;4389;41.932;25.904;2024-01-25T03:46:26;22.27;;;17.00;;
8704;SDS011;4389;41.932;25.904;2024-01-25T03:48:53;24.97;;;16.60;;
8704;SDS011;4389;41.932;25.904;2024-01-25T03:51:20;26.47;;;18.07;;
8704;SDS011;4389;41.932;25.904;2024-01-25T03:53:49;24.90;;;17.87;;
8704;SDS011;4389;41.932;25.904;2024-01-25T03:56:18;27.37;;;19.27;;
8704;SDS011;4389;41.932;25.904;2024-01-25T03:58:44;25.83;;;19.60;;
8704;SDS011;4389;41.932;25.904;2024-01-25T04:01:11;24.87;;;18.83;;
8704;SDS011;4389;41.932;25.904;2024-01-25T04:03:38;25.10;;;19.07;;
8704;SDS011;4389;41.932;25.904;2024-01-25T04:06:07;31.83;;;20.23;;
8704;SDS011;4389;41.932;25.904;2024-01-25T04:08:34;26.37;;;19.07;;
8704;SDS011;4389;41.932;25.904;2024-01-25T04:11:01;30.80;;;19.27;;
8704;SDS011;4389;41.932;25.904;2024-01-25T04:13:28;29.07;;;20.70;;
8704;SDS011;4389;41.932;25.904;2024-01-25T04:15:55;30.90;;;20.80;;
8704;SDS011;4389;41.932;25.904;2024-01-25T04:18:22;25.50;;;18.80;;
8704;SDS011;4389;41.932;25.904;2024-01-25T04:20:49;30.37;;;19.87;;
8704;SDS011;4389;41.932;25.904;2024-01-25T04:23:17;28.27;;;17.57;;
8704;SDS011;4389;41.932;25.904;2024-01-25T04:25:44;25.90;;;18.87;;
8704;SDS011;4389;41.932;25.904;2024-01-25T04:28:11;27.20;;;19.37;;
8704;SDS011;4389;41.932;25.904;2024-01-25T04:30:38;25.10;;;17.47;;
8704;SDS011;4389;41.932;25.904;2024-01-25T04:33:05;27.97;;;19.60;;
8704;SDS011;4389;41.932;25.904;2024-01-25T04:35:31;28.23;;;20.17;;
8704;SDS011;4389;41.932;25.904;2024-01-25T04:37:58;30.40;;;20.30;;
8704;SDS011;4389;41.932;25.904;2024-01-25T04:40:26;29.43;;;19.20;;
8704;SDS011;4389;41.932;25.904;2024-01-25T04:42:53;25.50;;;19.37;;
8704;SDS011;4389;41.932;25.904;2024-01-25T04:45:20;26.00;;;19.07;;
8704;SDS011;4389;41.932;25.904;2024-01-25T04:47:47;25.60;;;19.37;;
8704;SDS011;4389;41.932;25.904;2024-01-25T04:50:14;27.83;;;20.40;;
8704;SDS011;4389;41.932;25.904;2024-01-25T04:52:41;26.97;;;20.27;;
8704;SDS011;4389;41.932;25.904;2024-01-25T04:55:08;30.93;;;21.87;;
8704;SDS011;4389;41.932;25.904;2024-01-25T04:57:36;38.17;;;23.17;;
8704;SDS011;4389;41.932;25.904;2024-01-25T05:00:04;30.47;;;21.13;;
8704;SDS011;4389;41.932;25.904;2024-01-25T05:02:31;38.17;;;23.37;;
8704;SDS011;4389;41.932;25.904;2024-01-25T05:04:58;28.37;;;19.60;;
8704;SDS011;4389;41.932;25.904;2024-01-25T05:07:25;28.57;;;20.87;;
8704;SDS011;4389;41.932;25.904;2024-01-25T05:09:52;35.37;;;24.27;;
8704;SDS011;4389;41.932;25.904;2024-01-25T05:12:19;37.87;;;24.90;;
8704;SDS011;4389;41.932;25.904;2024-01-25T05:14:47;37.13;;;27.67;;
8704;SDS011;4389;41.932;25.904;2024-01-25T05:17:14;34.37;;;25.13;;
8704;SDS011;4389;41.932;25.904;2024-01-25T05:19:41;39.23;;;25.57;;
8704;SDS011;4389;41.932;25.904;2024-01-25T05:22:08;46.57;;;26.60;;
8704;SDS011;4389;41.932;25.904;2024-01-25T05:24:35;40.00;;;26.20;;
8704;SDS011;4389;41.932;25.904;2024-01-25T05:27:02;43.47;;;25.47;;
8704;SDS011;4389;41.932;25.904;2024-01-25T05:29:29;37.43;;;24.10;;
8704;SDS011;4389;41.932;25.904;2024-01-25T05:31:57;33.23;;;22.73;;
8704;SDS011;4389;41.932;25.904;2024-01-25T05:34:24;33.53;;;23.63;;
8704;SDS011;4389;41.932;25.904;2024-01-25T05:36:51;39.07;;;24.60;;
8704;SDS011;4389;41.932;25.904;2024-01-25T05:39:18;43.07;;;23.97;;
8704;SDS011;4389;41.932;25.904;2024-01-25T05:41:46;33.60;;;24.80;;
8704;SDS011;4389;41.932;25.904;2024-01-25T05:44:13;35.43;;;24.77;;
8704;SDS011;4389;41.932;25.904;2024-01-25T05:46:40;39.03;;;25.07;;
8704;SDS011;4389;41.932;25.904;2024-01-25T05:49:08;37.97;;;24.20;;
8704;SDS011;4389;41.932;25.904;2024-01-25T05:51:35;43.03;;;24.53;;
8704;SDS011;4389;41.932;25.904;2024-01-25T05:54:03;36.70;;;24.57;;
8704;SDS011;4389;41.932;25.904;2024-01-25T05:56:30;38.77;;;25.70;;
8704;SDS011;4389;41.932;25.904;2024-01-25T05:58:57;37.03;;;24.77;;
8704;SDS011;4389;41.932;25.904;2024-01-25T06:01:24;34.50;;;26.20;;
8704;SDS011;4389;41.932;25.904;2024-01-25T06:03:51;40.87;;;27.27;;
8704;SDS011;4389;41.932;25.904;2024-01-25T06:06:19;42.63;;;31.20;;
8704;SDS011;4389;41.932;25.904;2024-01-25T06:08:46;46.13;;;30.33;;
8704;SDS011;4389;41.932;25.904;2024-01-25T06:11:13;43.77;;;28.30;;
8704;SDS011;4389;41.932;25.904;2024-01-25T06:13:40;45.93;;;34.23;;
8704;SDS011;4389;41.932;25.904;2024-01-25T06:16:07;39.87;;;30.10;;
8704;SDS011;4389;41.932;25.904;2024-01-25T06:18:34;52.67;;;30.33;;
8704;SDS011;4389;41.932;25.904;2024-01-25T06:21:02;35.33;;;28.20;;
8704;SDS011;4389;41.932;25.904;2024-01-25T06:23:30;41.97;;;28.00;;
8704;SDS011;4389;41.932;25.904;2024-01-25T06:25:57;43.13;;;23.77;;
8704;SDS011;4389;41.932;25.904;2024-01-25T06:28:23;39.30;;;25.27;;
8704;SDS011;4389;41.932;25.904;2024-01-25T06:30:50;33.87;;;23.20;;
8704;SDS011;4389;41.932;25.904;2024-01-25T06:33:17;34.83;;;23.20;;
8704;SDS011;4389;41.932;25.904;2024-01-25T06:35:44;34.07;;;22.73;;
8704;SDS011;4389;41.932;25.904;2024-01-25T06:38:12;38.17;;;23.03;;
8704;SDS011;4389;41.932;25.904;2024-01-25T06:40:40;34.23;;;23.17;;
8704;SDS011;4389;41.932;25.904;2024-01-25T06:43:07;33.47;;;23.77;;
8704;SDS011;4389;41.932;25.904;2024-01-25T06:45:33;31.17;;;22.73;;
8704;SDS011;4389;41.932;25.904;2024-01-25T06:48:01;33.37;;;22.23;;
8704;SDS011;4389;41.932;25.904;2024-01-25T06:50:28;33.10;;;23.43;;
8704;SDS011;4389;41.932;25.904;2024-01-25T06:52:55;33.10;;;23.67;;
8704;SDS011;4389;41.932;25.904;2024-01-25T06:55:22;29.27;;;22.33;;
8704;SDS011;4389;41.932;25.904;2024-01-25T06:57:50;39.57;;;23.47;;
8704;SDS011;4389;41.932;25.904;2024-01-25T07:00:17;30.73;;;22.40;;
8704;SDS011;4389;41.932;25.904;2024-01-25T07:02:46;33.83;;;21.23;;
8704;SDS011;4389;41.932;25.904;2024-01-25T07:05:13;30.23;;;22.33;;
8704;SDS011;4389;41.932;25.904;2024-01-25T07:07:40;32.53;;;21.87;;
8704;SDS011;4389;41.932;25.904;2024-01-25T07:10:07;36.13;;;22.20;;
8704;SDS011;4389;41.932;25.904;2024-01-25T07:12:34;33.90;;;23.53;;
8704;SDS011;4389;41.932;25.904;2024-01-25T07:15:03;50.87;;;21.27;;
8704;SDS011;4389;41.932;25.904;2024-01-25T07:17:30;26.77;;;19.63;;
8704;SDS011;4389;41.932;25.904;2024-01-25T07:19:57;31.27;;;21.40;;
8704;SDS011;4389;41.932;25.904;2024-01-25T07:22:24;34.57;;;22.57;;
8704;SDS011;4389;41.932;25.904;2024-01-25T07:24:50;30.57;;;19.73;;
8704;SDS011;4389;41.932;25.904;2024-01-25T07:27:17;39.90;;;24.63;;
8704;SDS011;4389;41.932;25.904;2024-01-25T07:29:44;30.87;;;22.00;;
8704;SDS011;4389;41.932;25.904;2024-01-25T07:32:12;31.60;;;22.67;;
8704;SDS011;4389;41.932;25.904;2024-01-25T07:34:39;31.60;;;21.70;;
8704;SDS011;4389;41.932;25.904;2024-01-25T07:37:06;25.57;;;19.87;;
8704;SDS011;4389;41.932;25.904;2024-01-25T07:39:33;34.13;;;22.00;;
8704;SDS011;4389;41.932;25.904;2024-01-25T07:42:00;33.40;;;23.70;;
8704;SDS011;4389;41.932;25.904;2024-01-25T07:44:27;40.93;;;26.77;;
8704;SDS011;4389;41.932;25.904;2024-01-25T07:46:53;40.43;;;26.27;;
8704;SDS011;4389;41.932;25.904;2024-01-25T07:49:22;36.33;;;24.93;;
8704;SDS011;4389;41.932;25.904;2024-01-25T07:51:48;39.60;;;23.93;;
8704;SDS011;4389;41.932;25.904;2024-01-25T07:54:15;34.80;;;24.47;;
8704;SDS011;4389;41.932;25.904;2024-01-25T07:56:43;34.40;;;22.90;;
8704;SDS011;4389;41.932;25.904;2024-01-25T07:59:10;38.50;;;27.63;;
8704;SDS011;4389;41.932;25.904;2024-01-25T08:01:36;39.87;;;27.57;;
8704;SDS011;4389;41.932;25.904;2024-01-25T08:04:03;37.30;;;24.90;;
8704;SDS011;4389;41.932;25.904;2024-01-25T08:06:31;30.13;;;20.93;;
8704;SDS011;4389;41.932;25.904;2024-01-25T08:08:58;29.37;;;20.60;;
8704;SDS011;4389;41.932;25.904;2024-01-25T08:11:25;28.13;;;19.50;;
8704;SDS011;4389;41.932;25.904;2024-01-25T08:13:52;32.07;;;21.33;;
8704;SDS011;4389;41.932;25.904;2024-01-25T08:16:19;41.07;;;25.17;;
8704;SDS011;4389;41.932;25.904;2024-01-25T08:18:46;35.77;;;23.80;;
8704;SDS011;4389;41.932;25.904;2024-01-25T08:21:13;36.43;;;22.47;;
8704;SDS011;4389;41.932;25.904;2024-01-25T08:23:42;39.20;;;20.87;;
8704;SDS011;4389;41.932;25.904;2024-01-25T08:26:09;30.37;;;22.30;;
8704;SDS011;4389;41.932;25.904;2024-01-25T08:28:38;28.50;;;19.90;;
8704;SDS011;4389;41.932;25.904;2024-01-25T08:31:05;31.00;;;20.90;;
8704;SDS011;4389;41.932;25.904;2024-01-25T08:33:32;31.30;;;20.13;;
8704;SDS011;4389;41.932;25.904;2024-01-25T08:35:59;33.63;;;22.80;;
8704;SDS011;4389;41.932;25.904;2024-01-25T08:38:25;31.33;;;19.70;;
8704;SDS011;4389;41.932;25.904;2024-01-25T08:40:54;33.47;;;21.47;;
8704;SDS011;4389;41.932;25.904;2024-01-25T08:43:20;31.60;;;19.53;;
8704;SDS011;4389;41.932;25.904;2024-01-25T08:45:47;34.97;;;20.10;;
8704;SDS011;4389;41.932;25.904;2024-01-25T08:48:14;27.00;;;17.97;;
8704;SDS011;4389;41.932;25.904;2024-01-25T08:50:41;25.47;;;18.07;;
8704;SDS011;4389;41.932;25.904;2024-01-25T08:53:07;31.50;;;19.13;;
8704;SDS011;4389;41.932;25.904;2024-01-25T08:55:35;29.93;;;20.20;;
8704;SDS011;4389;41.932;25.904;2024-01-25T08:58:06;24.33;;;16.87;;
8704;SDS011;4389;41.932;25.904;2024-01-25T09:00:33;25.10;;;18.33;;
8704;SDS011;4389;41.932;25.904;2024-01-25T09:02:59;29.03;;;19.10;;
8704;SDS011;4389;41.932;25.904;2024-01-25T09:05:26;30.27;;;21.03;;
8704;SDS011;4389;41.932;25.904;2024-01-25T09:07:53;34.97;;;22.00;;
8704;SDS011;4389;41.932;25.904;2024-01-25T09:10:20;29.53;;;21.03;;
8704;SDS011;4389;41.932;25.904;2024-01-25T09:12:47;25.93;;;19.17;;
8704;SDS011;4389;41.932;25.904;2024-01-25T09:15:15;27.57;;;19.17;;
8704;SDS011;4389;41.932;25.904;2024-01-25T09:17:42;26.33;;;18.40;;
8704;SDS011;4389;41.932;25.904;2024-01-25T09:20:10;31.67;;;19.33;;
8704;SDS011;4389;41.932;25.904;2024-01-25T09:22:37;26.77;;;18.33;;
8704;SDS011;4389;41.932;25.904;2024-01-25T09:25:04;28.17;;;17.30;;
8704;SDS011;4389;41.932;25.904;2024-01-25T09:27:32;24.53;;;17.70;;
8704;SDS011;4389;41.932;25.904;2024-01-25T09:29:59;25.07;;;17.50;;
8704;SDS011;4389;41.932;25.904;2024-01-25T09:32:27;61.07;;;21.37;;
8704;SDS011;4389;41.932;25.904;2024-01-25T09:34:54;23.10;;;16.70;;
8704;SDS011;4389;41.932;25.904;2024-01-25T09:37:21;22.53;;;14.40;;
8704;SDS011;4389;41.932;25.904;2024-01-25T09:39:49;23.83;;;14.40;;
8704;SDS011;4389;41.932;25.904;2024-01-25T09:42:16;20.47;;;13.67;;
8704;SDS011;4389;41.932;25.904;2024-01-25T09:44:43;26.63;;;15.80;;
8704;SDS011;4389;41.932;25.904;2024-01-25T09:47:10;31.67;;;19.63;;
8704;SDS011;4389;41.932;25.904;2024-01-25T09:49:39;28.77;;;17.97;;
8704;SDS011;4389;41.932;25.904;2024-01-25T09:52:07;24.43;;;17.80;;
8704;SDS011;4389;41.932;25.904;2024-01-25T09:54:38;34.50;;;22.10;;
8704;SDS011;4389;41.932;25.904;2024-01-25T09:57:07;47.03;;;20.00;;
8704;SDS011;4389;41.932;25.904;2024-01-25T09:59:40;36.20;;;17.40;;
8704;SDS011;4389;41.932;25.904;2024-01-25T10:02:08;51.27;;;19.60;;
8704;SDS011;4389;41.932;25.904;2024-01-25T10:04:35;45.20;;;19.93;;
8704;SDS011;4389;41.932;25.904;2024-01-25T10:07:04;29.33;;;18.70;;
8704;SDS011;4389;41.932;25.904;2024-01-25T10:09:31;33.30;;;19.77;;
8704;SDS011;4389;41.932;25.904;2024-01-25T10:12:05;24.73;;;17.33;;
8704;SDS011;4389;41.932;25.904;2024-01-25T10:14:32;55.37;;;20.23;;
8704;SDS011;4389;41.932;25.904;2024-01-25T10:16:59;27.03;;;14.50;;
8704;SDS011;4389;41.932;25.904;2024-01-25T10:19:27;23.27;;;13.90;;
8704;SDS011;4389;41.932;25.904;2024-01-25T10:21:55;35.07;;;16.03;;
8704;SDS011;4389;41.932;25.904;2024-01-25T10:24:24;18.30;;;11.80;;
8704;SDS011;4389;41.932;25.904;2024-01-25T10:26:50;33.90;;;17.03;;
8704;SDS011;4389;41.932;25.904;2024-01-25T10:29:17;24.67;;;12.40;;
8704;SDS011;4389;41.932;25.904;2024-01-25T10:31:44;21.27;;;10.63;;
8704;SDS011;4389;41.932;25.904;2024-01-25T10:34:13;41.60;;;9.90;;
8704;SDS011;4389;41.932;25.904;2024-01-25T10:36:40;17.73;;;7.60;;
8704;SDS011;4389;41.932;25.904;2024-01-25T10:39:08;16.03;;;9.10;;
8704;SDS011;4389;41.932;25.904;2024-01-25T10:41:36;10.40;;;5.30;;
8704;SDS011;4389;41.932;25.904;2024-01-25T10:44:04;12.00;;;4.30;;
8704;SDS011;4389;41.932;25.904;2024-01-25T10:46:32;4.60;;;1.80;;
8704;SDS011;4389;41.932;25.904;2024-01-25T10:48:59;8.13;;;2.43;;
8704;SDS011;4389;41.932;25.904;2024-01-25T10:51:28;4.77;;;1.60;;
8704;SDS011;4389;41.932;25.904;2024-01-25T10:53:56;12.70;;;2.70;;
8704;SDS011;4389;41.932;25.904;2024-01-25T10:56:24;3.70;;;1.67;;
8704;SDS011;4389;41.932;25.904;2024-01-25T10:58:53;7.50;;;3.13;;
8704;SDS011;4389;41.932;25.904;2024-01-25T11:01:20;10.27;;;2.07;;
8704;SDS011;4389;41.932;25.904;2024-01-25T11:03:47;20.33;;;4.20;;
8704;SDS011;4389;41.932;25.904;2024-01-25T11:06:14;18.30;;;4.67;;
8704;SDS011;4389;41.932;25.904;2024-01-25T11:08:41;27.73;;;3.43;;
8704;SDS011;4389;41.932;25.904;2024-01-25T11:11:09;8.83;;;3.20;;
8704;SDS011;4389;41.932;25.904;2024-01-25T11:13:38;11.70;;;2.27;;
8704;SDS011;4389;41.932;25.904;2024-01-25T11:16:14;6.50;;;2.70;;
8704;SDS011;4389;41.932;25.904;2024-01-25T11:18:48;20.90;;;3.63;;
8704;SDS011;4389;41.932;25.904;2024-01-25T11:21:22;7.47;;;2.43;;
8704;SDS011;4389;41.932;25.904;2024-01-25T11:23:59;11.27;;;3.60;;
8704;SDS011;4389;41.932;25.904;2024-01-25T11:26:26;4.10;;;1.90;;
8704;SDS011;4389;41.932;25.904;2024-01-25T11:28:54;6.07;;;1.93;;
8704;SDS011;4389;41.932;25.904;2024-01-25T11:31:23;11.27;;;4.27;;
8704;SDS011;4389;41.932;25.904;2024-01-25T11:33:50;7.23;;;2.60;;
8704;SDS011;4389;41.932;25.904;2024-01-25T11:36:20;5.70;;;2.60;;
8704;SDS011;4389;41.932;25.904;2024-01-25T11:38:48;7.67;;;2.33;;
8704;SDS011;4389;41.932;25.904;2024-01-25T11:41:15;6.50;;;2.23;;
8704;SDS011;4389;41.932;25.904;2024-01-25T11:43:42;10.37;;;2.87;;
8704;SDS011;4389;41.932;25.904;2024-01-25T11:46:09;6.17;;;2.07;;
8704;SDS011;4389;41.932;25.904;2024-01-25T11:48:39;7.90;;;2.63;;
8704;SDS011;4389;41.932;25.904;2024-01-25T11:51:08;5.97;;;1.97;;
8704;SDS011;4389;41.932;25.904;2024-01-25T11:53:36;7.77;;;2.13;;
8704;SDS011;4389;41.932;25.904;2024-01-25T11:56:03;3.33;;;2.03;;
8704;SDS011;4389;41.932;25.904;2024-01-25T11:58:33;10.50;;;2.50;;
8704;SDS011;4389;41.932;25.904;2024-01-25T12:01:00;19.53;;;3.47;;
8704;SDS011;4389;41.932;25.904;2024-01-25T12:03:31;8.40;;;2.50;;
8704;SDS011;4389;41.932;25.904;2024-01-25T12:06:00;7.20;;;2.83;;
8704;SDS011;4389;41.932;25.904;2024-01-25T12:08:27;13.53;;;2.90;;
8704;SDS011;4389;41.932;25.904;2024-01-25T12:11:02;11.77;;;2.63;;
8704;SDS011;4389;41.932;25.904;2024-01-25T12:13:31;6.67;;;2.73;;
8704;SDS011;4389;41.932;25.904;2024-01-25T12:15:59;8.37;;;3.33;;
8704;SDS011;4389;41.932;25.904;2024-01-25T12:18:26;4.57;;;2.27;;
8704;SDS011;4389;41.932;25.904;2024-01-25T12:20:53;3.13;;;2.00;;
8704;SDS011;4389;41.932;25.904;2024-01-25T12:23:22;6.63;;;1.73;;
8704;SDS011;4389;41.932;25.904;2024-01-25T12:25:49;10.73;;;2.70;;
8704;SDS011;4389;41.932;25.904;2024-01-25T12:28:16;7.43;;;2.73;;
8704;SDS011;4389;41.932;25.904;2024-01-25T12:30:42;4.77;;;2.03;;
8704;SDS011;4389;41.932;25.904;2024-01-25T12:33:09;7.13;;;3.00;;
8704;SDS011;4389;41.932;25.904;2024-01-25T12:35:37;15.43;;;2.40;;
8704;SDS011;4389;41.932;25.904;2024-01-25T12:38:04;6.73;;;2.70;;
8704;SDS011;4389;41.932;25.904;2024-01-25T12:40:32;5.50;;;2.47;;
8704;SDS011;4389;41.932;25.904;2024-01-25T12:42:59;4.97;;;2.10;;
8704;SDS011;4389;41.932;25.904;2024-01-25T12:45:26;10.17;;;2.60;;
8704;SDS011;4389;41.932;25.904;2024-01-25T12:47:53;5.40;;;2.40;;
8704;SDS011;4389;41.932;25.904;2024-01-25T12:50:20;4.83;;;2.37;;
8704;SDS011;4389;41.932;25.904;2024-01-25T12:52:47;4.37;;;2.13;;
8704;SDS011;4389;41.932;25.904;2024-01-25T12:55:14;4.43;;;1.90;;
8704;SDS011;4389;41.932;25.904;2024-01-25T12:57:43;3.03;;;1.80;;
8704;SDS011;4389;41.932;25.904;2024-01-25T13:00:10;7.50;;;2.53;;
8704;SDS011;4389;41.932;25.904;2024-01-25T13:02:37;7.40;;;3.07;;
8704;SDS011;4389;41.932;25.904;2024-01-25T13:05:05;12.00;;;3.20;;
8704;SDS011;4389;41.932;25.904;2024-01-25T13:07:32;4.33;;;1.90;;
8704;SDS011;4389;41.932;25.904;2024-01-25T13:09:59;8.40;;;2.63;;
8704;SDS011;4389;41.932;25.904;2024-01-25T13:12:26;4.67;;;2.33;;
8704;SDS011;4389;41.932;25.904;2024-01-25T13:14:57;6.73;;;2.93;;
8704;SDS011;4389;41.932;25.904;2024-01-25T13:17:24;5.33;;;2.30;;
8704;SDS011;4389;41.932;25.904;2024-01-25T13:19:52;5.33;;;2.87;;
8704;SDS011;4389;41.932;25.904;2024-01-25T13:22:19;9.90;;;2.90;;
8704;SDS011;4389;41.932;25.904;2024-01-25T13:24:47;6.73;;;2.40;;
8704;SDS011;4389;41.932;25.904;2024-01-25T13:27:14;6.73;;;2.30;;
8704;SDS011;4389;41.932;25.904;2024-01-25T13:29:41;6.63;;;2.50;;
8704;SDS011;4389;41.932;25.904;2024-01-25T13:32:10;4.00;;;2.40;;
8704;SDS011;4389;41.932;25.904;2024-01-25T13:34:37;6.33;;;2.93;;
8704;SDS011;4389;41.932;25.904;2024-01-25T13:37:04;7.47;;;2.90;;
8704;SDS011;4389;41.932;25.904;2024-01-25T13:39:31;4.53;;;2.33;;
8704;SDS011;4389;41.932;25.904;2024-01-25T13:41:58;7.00;;;2.40;;
8704;SDS011;4389;41.932;25.904;2024-01-25T13:44:25;5.40;;;2.40;;
8704;SDS011;4389;41.932;25.904;2024-01-25T13:46:52;12.17;;;3.37;;
8704;SDS011;4389;41.932;25.904;2024-01-25T13:49:22;12.70;;;4.60;;
8704;SDS011;4389;41.932;25.904;2024-01-25T13:51:49;7.13;;;4.03;;
8704;SDS011;4389;41.932;25.904;2024-01-25T13:54:16;7.80;;;3.60;;
8704;SDS011;4389;41.932;25.904;2024-01-25T13:56:43;8.57;;;3.47;;
8704;SDS011;4389;41.932;25.904;2024-01-25T13:59:10;8.10;;;3.03;;
8704;SDS011;4389;41.932;25.904;2024-01-25T14:01:37;5.93;;;3.07;;
8704;SDS011;4389;41.932;25.904;2024-01-25T14:04:04;17.77;;;3.47;;
8704;SDS011;4389;41.932;25.904;2024-01-25T14:06:32;6.33;;;3.07;;
8704;SDS011;4389;41.932;25.904;2024-01-25T14:08:59;8.37;;;2.80;;
8704;SDS011;4389;41.932;25.904;2024-01-25T14:11:27;6.53;;;2.60;;
8704;SDS011;4389;41.932;25.904;2024-01-25T14:13:54;5.97;;;2.93;;
8704;SDS011;4389;41.932;25.904;2024-01-25T14:16:21;17.23;;;2.97;;
8704;SDS011;4389;41.932;25.904;2024-01-25T14:18:49;5.60;;;3.07;;
8704;SDS011;4389;41.932;25.904;2024-01-25T14:21:16;6.97;;;3.43;;
8704;SDS011;4389;41.932;25.904;2024-01-25T14:23:47;10.30;;;2.60;;
8704;SDS011;4389;41.932;25.904;2024-01-25T14:26:14;5.87;;;2.53;;
8704;SDS011;4389;41.932;25.904;2024-01-25T14:28:41;4.13;;;2.53;;
8704;SDS011;4389;41.932;25.904;2024-01-25T14:31:08;9.43;;;3.70;;
8704;SDS011;4389;41.932;25.904;2024-01-25T14:33:35;5.97;;;3.10;;
8704;SDS011;4389;41.932;25.904;2024-01-25T14:36:02;8.47;;;3.50;;
8704;SDS011;4389;41.932;25.904;2024-01-25T14:38:30;13.73;;;3.43;;
8704;SDS011;4389;41.932;25.904;2024-01-25T14:40:58;6.70;;;3.73;;